LFBO/TLS METAR and TAF weather

Enter ICAO airport designator
Station Type Date Time Source
LFBO METAR 2021/04/14 19:00 UTC NOAA

LFBO 141900Z AUTO 31009KT CAVOK 12/M01 Q1020 NOSIG


Station Type Date Time Source
LFBO Decoded METAR 2021/04/14 19:00 UTC NOAA

Toulouse / Blagnac, France (LFBO) 43-38N 001-22E 153M
Apr 14, 2021 - 03:00 PM EDT / 2021.04.14 1900 UTC
Wind: from the NW (310 degrees) at 10 MPH (9 KT):0
Visibility: greater than 7 mile(s):0
Temperature: 53 F (12 C)
Dew Point: 30 F (-1 C)
Relative Humidity: 40%
Pressure (altimeter): 30.12 in. Hg (1020 hPa)
ob: LFBO 141900Z AUTO 31009KT CAVOK 12/M01 Q1020 NOSIG
cycle: 19

Station Type Date Time Source
LFBO TAF 2021/04/14 18:21 UTC NOAA

TAF LFBO 141700Z 1418/1524 32007KT CAVOK

Example: see airport list